sensor_id;sensor_type;location;lat;lon;timestamp;temperature;humidity
10386;DHT22;34307;51.332;12.334;2023-07-28T00:00:58;16.80;99.90
10386;DHT22;34307;51.332;12.334;2023-07-28T00:03:28;16.80;99.90
10386;DHT22;34307;51.332;12.334;2023-07-28T00:05:56;16.80;99.90
10386;DHT22;34307;51.332;12.334;2023-07-28T00:08:25;16.90;99.90
10386;DHT22;34307;51.332;12.334;2023-07-28T00:10:53;16.90;99.90
10386;DHT22;34307;51.332;12.334;2023-07-28T00:13:22;16.90;99.90
10386;DHT22;34307;51.332;12.334;2023-07-28T00:15:50;17.00;99.90
10386;DHT22;34307;51.332;12.334;2023-07-28T00:18:20;16.90;99.90
10386;DHT22;34307;51.332;12.334;2023-07-28T00:20:48;16.90;99.90
10386;DHT22;34307;51.332;12.334;2023-07-28T00:23:18;16.90;99.90
10386;DHT22;34307;51.332;12.334;2023-07-28T00:25:47;17.00;99.90
10386;DHT22;34307;51.332;12.334;2023-07-28T00:28:16;17.00;99.90
10386;DHT22;34307;51.332;12.334;2023-07-28T00:30:44;17.00;99.90
10386;DHT22;34307;51.332;12.334;2023-07-28T00:33:16;17.00;99.90
10386;DHT22;34307;51.332;12.334;2023-07-28T00:35:46;17.00;99.90
10386;DHT22;34307;51.332;12.334;2023-07-28T00:38:15;17.00;99.90
10386;DHT22;34307;51.332;12.334;2023-07-28T00:40:45;17.00;99.90
10386;DHT22;34307;51.332;12.334;2023-07-28T00:43:14;17.00;99.90
10386;DHT22;34307;51.332;12.334;2023-07-28T00:45:43;17.00;99.90
10386;DHT22;34307;51.332;12.334;2023-07-28T00:48:13;17.00;99.90
10386;DHT22;34307;51.332;12.334;2023-07-28T00:50:46;17.00;99.90
10386;DHT22;34307;51.332;12.334;2023-07-28T00:53:15;17.00;99.90
10386;DHT22;34307;51.332;12.334;2023-07-28T00:55:44;17.00;99.90
10386;DHT22;34307;51.332;12.334;2023-07-28T00:58:12;17.10;99.90
10386;DHT22;34307;51.332;12.334;2023-07-28T01:00:42;17.10;99.90
10386;DHT22;34307;51.332;12.334;2023-07-28T01:03:10;17.10;99.90
10386;DHT22;34307;51.332;12.334;2023-07-28T01:05:44;17.10;99.90
10386;DHT22;34307;51.332;12.334;2023-07-28T01:08:19;17.20;99.90
10386;DHT22;34307;51.332;12.334;2023-07-28T01:10:49;17.10;99.90
10386;DHT22;34307;51.332;12.334;2023-07-28T01:13:21;17.10;99.90
10386;DHT22;34307;51.332;12.334;2023-07-28T01:15:49;17.20;99.90
10386;DHT22;34307;51.332;12.334;2023-07-28T01:18:18;17.20;99.90
10386;DHT22;34307;51.332;12.334;2023-07-28T01:20:46;17.10;99.90
10386;DHT22;34307;51.332;12.334;2023-07-28T01:23:19;17.20;99.90
10386;DHT22;34307;51.332;12.334;2023-07-28T01:25:53;17.20;99.90
10386;DHT22;34307;51.332;12.334;2023-07-28T01:28:25;17.20;99.90
10386;DHT22;34307;51.332;12.334;2023-07-28T01:30:54;17.20;99.90
10386;DHT22;34307;51.332;12.334;2023-07-28T01:33:22;17.30;99.90
10386;DHT22;34307;51.332;12.334;2023-07-28T01:35:50;17.30;99.90
10386;DHT22;34307;51.332;12.334;2023-07-28T01:38:17;17.30;99.90
10386;DHT22;34307;51.332;12.334;2023-07-28T01:40:46;17.30;99.90
10386;DHT22;34307;51.332;12.334;2023-07-28T01:43:15;17.30;99.90
10386;DHT22;34307;51.332;12.334;2023-07-28T01:45:44;17.40;99.90
10386;DHT22;34307;51.332;12.334;2023-07-28T01:48:12;17.30;99.90
10386;DHT22;34307;51.332;12.334;2023-07-28T01:50:43;17.40;99.90
10386;DHT22;34307;51.332;12.334;2023-07-28T01:53:13;17.40;99.90
10386;DHT22;34307;51.332;12.334;2023-07-28T01:55:46;17.30;99.90
10386;DHT22;34307;51.332;12.334;2023-07-28T01:58:18;17.40;99.90
10386;DHT22;34307;51.332;12.334;2023-07-28T02:00:47;17.40;99.90
10386;DHT22;34307;51.332;12.334;2023-07-28T02:03:16;17.40;99.90
10386;DHT22;34307;51.332;12.334;2023-07-28T02:05:44;17.40;99.90
10386;DHT22;34307;51.332;12.334;2023-07-28T02:08:13;17.30;99.90
10386;DHT22;34307;51.332;12.334;2023-07-28T02:10:44;17.30;99.90
10386;DHT22;34307;51.332;12.334;2023-07-28T02:13:12;17.20;99.90
10386;DHT22;34307;51.332;12.334;2023-07-28T02:15:41;17.20;99.90
10386;DHT22;34307;51.332;12.334;2023-07-28T02:18:11;17.20;99.90
10386;DHT22;34307;51.332;12.334;2023-07-28T02:20:39;17.20;99.90
10386;DHT22;34307;51.332;12.334;2023-07-28T02:23:08;17.20;99.90
10386;DHT22;34307;51.332;12.334;2023-07-28T02:25:38;17.20;99.90
10386;DHT22;34307;51.332;12.334;2023-07-28T02:28:08;17.20;99.90
10386;DHT22;34307;51.332;12.334;2023-07-28T02:30:36;17.20;99.90
10386;DHT22;34307;51.332;12.334;2023-07-28T02:33:05;17.20;99.90
10386;DHT22;34307;51.332;12.334;2023-07-28T02:35:35;17.20;99.90
10386;DHT22;34307;51.332;12.334;2023-07-28T02:38:03;17.20;99.90
10386;DHT22;34307;51.332;12.334;2023-07-28T02:40:32;17.20;99.90
10386;DHT22;34307;51.332;12.334;2023-07-28T02:43:01;17.20;99.90
10386;DHT22;34307;51.332;12.334;2023-07-28T02:45:29;17.20;99.90
10386;DHT22;34307;51.332;12.334;2023-07-28T02:47:57;17.20;99.90
10386;DHT22;34307;51.332;12.334;2023-07-28T02:50:25;17.20;99.90
10386;DHT22;34307;51.332;12.334;2023-07-28T02:52:56;17.30;99.90
10386;DHT22;34307;51.332;12.334;2023-07-28T02:55:24;17.20;99.90
10386;DHT22;34307;51.332;12.334;2023-07-28T02:57:52;17.20;99.90
10386;DHT22;34307;51.332;12.334;2023-07-28T03:00:21;17.30;99.90
10386;DHT22;34307;51.332;12.334;2023-07-28T03:02:50;17.30;99.90
10386;DHT22;34307;51.332;12.334;2023-07-28T03:05:19;17.30;99.90
10386;DHT22;34307;51.332;12.334;2023-07-28T03:07:48;17.30;99.90
10386;DHT22;34307;51.332;12.334;2023-07-28T03:10:20;17.30;99.90
10386;DHT22;34307;51.332;12.334;2023-07-28T03:12:48;17.30;99.90
10386;DHT22;34307;51.332;12.334;2023-07-28T03:15:17;17.30;99.90
10386;DHT22;34307;51.332;12.334;2023-07-28T03:17:45;17.30;99.90
10386;DHT22;34307;51.332;12.334;2023-07-28T03:20:14;17.30;99.90
10386;DHT22;34307;51.332;12.334;2023-07-28T03:22:44;17.40;99.90
10386;DHT22;34307;51.332;12.334;2023-07-28T03:25:12;17.40;99.90
10386;DHT22;34307;51.332;12.334;2023-07-28T03:27:44;17.40;99.90
10386;DHT22;34307;51.332;12.334;2023-07-28T03:30:13;17.50;99.90
10386;DHT22;34307;51.332;12.334;2023-07-28T03:32:42;17.50;99.90
10386;DHT22;34307;51.332;12.334;2023-07-28T03:35:12;17.50;99.90
10386;DHT22;34307;51.332;12.334;2023-07-28T03:37:41;17.50;99.90
10386;DHT22;34307;51.332;12.334;2023-07-28T03:40:09;17.50;99.90
10386;DHT22;34307;51.332;12.334;2023-07-28T03:42:38;17.50;99.90
10386;DHT22;34307;51.332;12.334;2023-07-28T03:45:10;17.50;99.90
10386;DHT22;34307;51.332;12.334;2023-07-28T03:47:38;17.50;99.90
10386;DHT22;34307;51.332;12.334;2023-07-28T03:50:07;17.50;99.90
10386;DHT22;34307;51.332;12.334;2023-07-28T03:52:36;17.50;99.90
10386;DHT22;34307;51.332;12.334;2023-07-28T03:55:04;17.50;99.90
10386;DHT22;34307;51.332;12.334;2023-07-28T03:57:33;17.50;99.90
10386;DHT22;34307;51.332;12.334;2023-07-28T04:00:02;17.50;99.90
10386;DHT22;34307;51.332;12.334;2023-07-28T04:02:31;17.50;99.90
10386;DHT22;34307;51.332;12.334;2023-07-28T04:04:59;17.50;99.90
10386;DHT22;34307;51.332;12.334;2023-07-28T04:07:28;17.50;99.90
10386;DHT22;34307;51.332;12.334;2023-07-28T04:09:57;17.50;99.90
10386;DHT22;34307;51.332;12.334;2023-07-28T04:12:25;17.50;99.90
10386;DHT22;34307;51.332;12.334;2023-07-28T04:14:53;17.50;99.90
10386;DHT22;34307;51.332;12.334;2023-07-28T04:17:23;17.50;99.90
10386;DHT22;34307;51.332;12.334;2023-07-28T04:19:53;17.50;99.90
10386;DHT22;34307;51.332;12.334;2023-07-28T04:22:21;17.50;99.90
10386;DHT22;34307;51.332;12.334;2023-07-28T04:24:49;17.50;99.90
10386;DHT22;34307;51.332;12.334;2023-07-28T04:27:18;17.50;99.90
10386;DHT22;34307;51.332;12.334;2023-07-28T04:29:47;17.50;99.90
10386;DHT22;34307;51.332;12.334;2023-07-28T04:32:16;17.50;99.90
10386;DHT22;34307;51.332;12.334;2023-07-28T04:34:48;17.50;99.90
10386;DHT22;34307;51.332;12.334;2023-07-28T04:37:17;17.50;99.90
10386;DHT22;34307;51.332;12.334;2023-07-28T04:39:45;17.50;99.90
10386;DHT22;34307;51.332;12.334;2023-07-28T04:42:15;17.40;99.90
10386;DHT22;34307;51.332;12.334;2023-07-28T04:44:44;17.40;99.90
10386;DHT22;34307;51.332;12.334;2023-07-28T04:47:13;17.40;99.90
10386;DHT22;34307;51.332;12.334;2023-07-28T04:49:41;17.50;99.90
10386;DHT22;34307;51.332;12.334;2023-07-28T04:52:10;17.50;99.90
10386;DHT22;34307;51.332;12.334;2023-07-28T04:54:41;17.50;99.90
10386;DHT22;34307;51.332;12.334;2023-07-28T04:57:09;17.50;99.90
10386;DHT22;34307;51.332;12.334;2023-07-28T04:59:41;17.50;99.90
10386;DHT22;34307;51.332;12.334;2023-07-28T05:02:09;17.50;99.90
10386;DHT22;34307;51.332;12.334;2023-07-28T05:04:37;17.60;99.90
10386;DHT22;34307;51.332;12.334;2023-07-28T05:07:06;17.50;99.90
10386;DHT22;34307;51.332;12.334;2023-07-28T05:09:34;17.50;99.90
10386;DHT22;34307;51.332;12.334;2023-07-28T05:12:05;17.50;99.90
10386;DHT22;34307;51.332;12.334;2023-07-28T05:14:33;17.50;99.90
10386;DHT22;34307;51.332;12.334;2023-07-28T05:17:01;17.50;99.90
10386;DHT22;34307;51.332;12.334;2023-07-28T05:19:29;17.60;99.90
10386;DHT22;34307;51.332;12.334;2023-07-28T05:21:58;17.60;99.90
10386;DHT22;34307;51.332;12.334;2023-07-28T05:24:26;17.60;99.90
10386;DHT22;34307;51.332;12.334;2023-07-28T05:26:55;17.70;99.90
10386;DHT22;34307;51.332;12.334;2023-07-28T05:29:24;17.70;99.90
10386;DHT22;34307;51.332;12.334;2023-07-28T05:31:53;17.70;99.90
10386;DHT22;34307;51.332;12.334;2023-07-28T05:34:24;17.70;99.90
10386;DHT22;34307;51.332;12.334;2023-07-28T05:36:52;17.80;99.90
10386;DHT22;34307;51.332;12.334;2023-07-28T05:39:20;17.80;99.90
10386;DHT22;34307;51.332;12.334;2023-07-28T05:41:49;17.80;99.90
10386;DHT22;34307;51.332;12.334;2023-07-28T05:44:18;17.90;99.90
10386;DHT22;34307;51.332;12.334;2023-07-28T05:46:47;17.90;99.90
10386;DHT22;34307;51.332;12.334;2023-07-28T05:49:15;18.00;99.90
10386;DHT22;34307;51.332;12.334;2023-07-28T05:51:43;18.00;99.90
10386;DHT22;34307;51.332;12.334;2023-07-28T05:54:12;18.00;99.90
10386;DHT22;34307;51.332;12.334;2023-07-28T05:56:41;18.00;99.90
10386;DHT22;34307;51.332;12.334;2023-07-28T05:59:10;17.90;99.90
10386;DHT22;34307;51.332;12.334;2023-07-28T06:01:38;18.00;99.90
10386;DHT22;34307;51.332;12.334;2023-07-28T06:04:10;18.00;99.90
10386;DHT22;34307;51.332;12.334;2023-07-28T06:06:39;18.10;99.90
10386;DHT22;34307;51.332;12.334;2023-07-28T06:09:09;18.30;99.90
10386;DHT22;34307;51.332;12.334;2023-07-28T06:11:42;18.40;99.90
10386;DHT22;34307;51.332;12.334;2023-07-28T06:14:10;18.50;99.90
10386;DHT22;34307;51.332;12.334;2023-07-28T06:16:39;18.40;99.90
10386;DHT22;34307;51.332;12.334;2023-07-28T06:19:08;18.40;99.90
10386;DHT22;34307;51.332;12.334;2023-07-28T06:21:38;18.50;99.90
10386;DHT22;34307;51.332;12.334;2023-07-28T06:24:06;18.60;99.90
10386;DHT22;34307;51.332;12.334;2023-07-28T06:26:34;18.60;99.90
10386;DHT22;34307;51.332;12.334;2023-07-28T06:29:02;18.60;99.90
10386;DHT22;34307;51.332;12.334;2023-07-28T06:31:31;18.60;99.90
10386;DHT22;34307;51.332;12.334;2023-07-28T06:34:00;18.70;99.90
10386;DHT22;34307;51.332;12.334;2023-07-28T06:36:29;18.60;99.90
10386;DHT22;34307;51.332;12.334;2023-07-28T06:38:59;18.70;99.90
10386;DHT22;34307;51.332;12.334;2023-07-28T06:41:27;18.80;99.90
10386;DHT22;34307;51.332;12.334;2023-07-28T06:43:55;18.80;99.90
10386;DHT22;34307;51.332;12.334;2023-07-28T06:46:23;18.90;99.90
10386;DHT22;34307;51.332;12.334;2023-07-28T06:48:52;18.90;99.90
10386;DHT22;34307;51.332;12.334;2023-07-28T06:51:22;18.90;99.90
10386;DHT22;34307;51.332;12.334;2023-07-28T06:53:53;18.90;99.90
10386;DHT22;34307;51.332;12.334;2023-07-28T06:56:35;18.90;99.90
10386;DHT22;34307;51.332;12.334;2023-07-28T06:59:07;19.10;99.90
10386;DHT22;34307;51.332;12.334;2023-07-28T07:01:44;19.10;99.90
10386;DHT22;34307;51.332;12.334;2023-07-28T07:04:12;19.10;99.90
10386;DHT22;34307;51.332;12.334;2023-07-28T07:06:41;19.20;99.90
10386;DHT22;34307;51.332;12.334;2023-07-28T07:09:10;19.30;99.90
10386;DHT22;34307;51.332;12.334;2023-07-28T07:11:43;19.50;99.90
10386;DHT22;34307;51.332;12.334;2023-07-28T07:14:12;19.50;99.90
10386;DHT22;34307;51.332;12.334;2023-07-28T07:16:41;19.60;99.90
10386;DHT22;34307;51.332;12.334;2023-07-28T07:19:09;19.60;99.90
10386;DHT22;34307;51.332;12.334;2023-07-28T07:21:37;19.70;99.90
10386;DHT22;34307;51.332;12.334;2023-07-28T07:24:06;19.80;99.90
10386;DHT22;34307;51.332;12.334;2023-07-28T07:26:33;20.00;99.90
10386;DHT22;34307;51.332;12.334;2023-07-28T07:29:03;20.00;99.90
10386;DHT22;34307;51.332;12.334;2023-07-28T07:31:31;20.00;99.90
10386;DHT22;34307;51.332;12.334;2023-07-28T07:33:59;20.00;99.90
10386;DHT22;34307;51.332;12.334;2023-07-28T07:36:28;20.30;99.90
10386;DHT22;34307;51.332;12.334;2023-07-28T07:38:56;20.60;99.90
10386;DHT22;34307;51.332;12.334;2023-07-28T07:41:24;20.70;99.90
10386;DHT22;34307;51.332;12.334;2023-07-28T07:43:54;20.60;99.90
10386;DHT22;34307;51.332;12.334;2023-07-28T07:46:27;20.50;99.90
10386;DHT22;34307;51.332;12.334;2023-07-28T07:48:56;20.50;99.90
10386;DHT22;34307;51.332;12.334;2023-07-28T07:51:24;20.60;99.90
10386;DHT22;34307;51.332;12.334;2023-07-28T07:53:52;20.60;99.90
10386;DHT22;34307;51.332;12.334;2023-07-28T07:56:21;20.70;99.90
10386;DHT22;34307;51.332;12.334;2023-07-28T07:58:49;20.80;99.90
10386;DHT22;34307;51.332;12.334;2023-07-28T08:01:17;20.70;99.90
10386;DHT22;34307;51.332;12.334;2023-07-28T08:03:47;20.60;99.90
10386;DHT22;34307;51.332;12.334;2023-07-28T08:06:16;20.70;99.90
10386;DHT22;34307;51.332;12.334;2023-07-28T08:08:44;20.80;99.90
10386;DHT22;34307;51.332;12.334;2023-07-28T08:11:12;20.90;99.90
10386;DHT22;34307;51.332;12.334;2023-07-28T08:13:40;20.90;99.90
10386;DHT22;34307;51.332;12.334;2023-07-28T08:16:08;20.70;99.90
10386;DHT22;34307;51.332;12.334;2023-07-28T08:18:37;20.80;99.90
10386;DHT22;34307;51.332;12.334;2023-07-28T08:21:07;20.80;99.90
10386;DHT22;34307;51.332;12.334;2023-07-28T08:23:35;20.80;99.90
10386;DHT22;34307;51.332;12.334;2023-07-28T08:26:05;21.00;99.90
10386;DHT22;34307;51.332;12.334;2023-07-28T08:28:35;21.10;99.90
10386;DHT22;34307;51.332;12.334;2023-07-28T08:31:02;21.10;99.90
10386;DHT22;34307;51.332;12.334;2023-07-28T08:33:31;20.90;99.90
10386;DHT22;34307;51.332;12.334;2023-07-28T08:35:59;21.10;99.90
10386;DHT22;34307;51.332;12.334;2023-07-28T08:38:32;21.20;99.90
10386;DHT22;34307;51.332;12.334;2023-07-28T08:41:00;21.40;99.90
10386;DHT22;34307;51.332;12.334;2023-07-28T08:43:28;21.30;99.90
10386;DHT22;34307;51.332;12.334;2023-07-28T08:45:56;21.00;99.90
10386;DHT22;34307;51.332;12.334;2023-07-28T08:48:27;20.90;99.90
10386;DHT22;34307;51.332;12.334;2023-07-28T08:50:55;20.90;99.90
10386;DHT22;34307;51.332;12.334;2023-07-28T08:53:23;21.10;99.90
10386;DHT22;34307;51.332;12.334;2023-07-28T08:55:55;21.10;99.90
10386;DHT22;34307;51.332;12.334;2023-07-28T08:58:23;21.20;99.90
10386;DHT22;34307;51.332;12.334;2023-07-28T09:00:53;21.50;99.90
10386;DHT22;34307;51.332;12.334;2023-07-28T09:03:21;21.40;99.90
10386;DHT22;34307;51.332;12.334;2023-07-28T09:05:59;21.80;99.90
10386;DHT22;34307;51.332;12.334;2023-07-28T09:08:28;22.00;99.90
10386;DHT22;34307;51.332;12.334;2023-07-28T09:11:02;21.80;99.90
10386;DHT22;34307;51.332;12.334;2023-07-28T09:13:36;21.80;99.90
10386;DHT22;34307;51.332;12.334;2023-07-28T09:16:05;21.80;99.90
10386;DHT22;34307;51.332;12.334;2023-07-28T09:18:33;22.00;99.90
10386;DHT22;34307;51.332;12.334;2023-07-28T09:21:01;22.10;99.90
10386;DHT22;34307;51.332;12.334;2023-07-28T09:23:30;22.10;99.90
10386;DHT22;34307;51.332;12.334;2023-07-28T09:26:00;22.00;99.90
10386;DHT22;34307;51.332;12.334;2023-07-28T09:28:37;22.20;99.90
10386;DHT22;34307;51.332;12.334;2023-07-28T09:31:05;22.30;99.90
10386;DHT22;34307;51.332;12.334;2023-07-28T09:33:35;22.40;99.90
10386;DHT22;34307;51.332;12.334;2023-07-28T09:36:08;22.50;99.90
10386;DHT22;34307;51.332;12.334;2023-07-28T09:38:39;22.80;99.90
10386;DHT22;34307;51.332;12.334;2023-07-28T09:41:10;22.80;99.90
10386;DHT22;34307;51.332;12.334;2023-07-28T09:43:39;22.50;99.90
10386;DHT22;34307;51.332;12.334;2023-07-28T09:46:10;22.50;99.90
10386;DHT22;34307;51.332;12.334;2023-07-28T09:48:44;22.80;99.90
10386;DHT22;34307;51.332;12.334;2023-07-28T09:51:17;22.90;99.90
10386;DHT22;34307;51.332;12.334;2023-07-28T09:53:49;22.60;99.90
10386;DHT22;34307;51.332;12.334;2023-07-28T09:56:18;22.40;99.90
10386;DHT22;34307;51.332;12.334;2023-07-28T09:58:50;22.50;99.90
10386;DHT22;34307;51.332;12.334;2023-07-28T10:01:20;22.50;99.90
10386;DHT22;34307;51.332;12.334;2023-07-28T10:03:50;22.30;99.90
10386;DHT22;34307;51.332;12.334;2023-07-28T10:06:19;22.50;99.90
10386;DHT22;34307;51.332;12.334;2023-07-28T10:08:49;23.00;99.90
10386;DHT22;34307;51.332;12.334;2023-07-28T10:11:20;22.90;99.90
10386;DHT22;34307;51.332;12.334;2023-07-28T10:13:51;23.00;99.90
10386;DHT22;34307;51.332;12.334;2023-07-28T10:16:29;23.00;99.90
10386;DHT22;34307;51.332;12.334;2023-07-28T10:18:58;23.10;99.90
10386;DHT22;34307;51.332;12.334;2023-07-28T10:21:28;23.00;99.90
10386;DHT22;34307;51.332;12.334;2023-07-28T10:23:59;23.60;95.60
10386;DHT22;34307;51.332;12.334;2023-07-28T10:26:39;23.50;93.40
10386;DHT22;34307;51.332;12.334;2023-07-28T10:29:13;23.80;90.20
10386;DHT22;34307;51.332;12.334;2023-07-28T10:31:53;23.90;86.90
10386;DHT22;34307;51.332;12.334;2023-07-28T10:34:22;23.80;89.70
10386;DHT22;34307;51.332;12.334;2023-07-28T10:36:57;23.90;90.40
10386;DHT22;34307;51.332;12.334;2023-07-28T10:39:26;23.80;90.60
10386;DHT22;34307;51.332;12.334;2023-07-28T10:42:04;23.80;90.50
10386;DHT22;34307;51.332;12.334;2023-07-28T10:44:33;23.70;88.10
10386;DHT22;34307;51.332;12.334;2023-07-28T10:47:07;23.60;86.90
10386;DHT22;34307;51.332;12.334;2023-07-28T10:49:35;23.80;88.60
10386;DHT22;34307;51.332;12.334;2023-07-28T10:52:04;24.30;71.20
10386;DHT22;34307;51.332;12.334;2023-07-28T10:54:32;24.30;67.60
10386;DHT22;34307;51.332;12.334;2023-07-28T10:57:03;24.40;64.80
10386;DHT22;34307;51.332;12.334;2023-07-28T10:59:32;24.50;66.00
10386;DHT22;34307;51.332;12.334;2023-07-28T11:02:02;24.70;66.20
10386;DHT22;34307;51.332;12.334;2023-07-28T11:04:31;24.10;64.60
10386;DHT22;34307;51.332;12.334;2023-07-28T11:07:00;24.00;67.00
10386;DHT22;34307;51.332;12.334;2023-07-28T11:09:29;24.00;71.50
10386;DHT22;34307;51.332;12.334;2023-07-28T11:11:57;23.70;70.80
10386;DHT22;34307;51.332;12.334;2023-07-28T11:14:27;23.40;73.50
10386;DHT22;34307;51.332;12.334;2023-07-28T11:16:59;23.30;76.00
10386;DHT22;34307;51.332;12.334;2023-07-28T11:19:28;23.70;76.70
10386;DHT22;34307;51.332;12.334;2023-07-28T11:21:56;23.80;76.90
10386;DHT22;34307;51.332;12.334;2023-07-28T11:24:26;24.20;73.10
10386;DHT22;34307;51.332;12.334;2023-07-28T11:26:57;24.00;69.60
10386;DHT22;34307;51.332;12.334;2023-07-28T11:29:28;23.70;72.10
10386;DHT22;34307;51.332;12.334;2023-07-28T11:31:58;23.70;74.80
10386;DHT22;34307;51.332;12.334;2023-07-28T11:34:27;23.60;80.50
10386;DHT22;34307;51.332;12.334;2023-07-28T11:36:55;23.70;79.40
10386;DHT22;34307;51.332;12.334;2023-07-28T11:39:25;24.50;73.20
10386;DHT22;34307;51.332;12.334;2023-07-28T11:41:53;24.70;66.00
10386;DHT22;34307;51.332;12.334;2023-07-28T11:44:21;25.20;61.80
10386;DHT22;34307;51.332;12.334;2023-07-28T11:46:52;26.00;55.50
10386;DHT22;34307;51.332;12.334;2023-07-28T11:49:22;25.80;52.60
10386;DHT22;34307;51.332;12.334;2023-07-28T11:51:52;25.70;52.00
10386;DHT22;34307;51.332;12.334;2023-07-28T11:54:22;25.60;53.50
10386;DHT22;34307;51.332;12.334;2023-07-28T11:56:51;25.80;51.00
10386;DHT22;34307;51.332;12.334;2023-07-28T11:59:22;25.60;50.10
10386;DHT22;34307;51.332;12.334;2023-07-28T12:01:56;25.80;50.70
10386;DHT22;34307;51.332;12.334;2023-07-28T12:04:31;25.80;50.70
10386;DHT22;34307;51.332;12.334;2023-07-28T12:07:06;25.60;52.40
10386;DHT22;34307;51.332;12.334;2023-07-28T12:09:49;25.20;55.10
10386;DHT22;34307;51.332;12.334;2023-07-28T12:12:30;25.20;56.40
10386;DHT22;34307;51.332;12.334;2023-07-28T12:15:19;25.60;55.10
10386;DHT22;34307;51.332;12.334;2023-07-28T12:18:07;25.70;52.70
10386;DHT22;34307;51.332;12.334;2023-07-28T12:20:40;26.60;51.90
10386;DHT22;34307;51.332;12.334;2023-07-28T12:23:14;26.80;49.10
10386;DHT22;34307;51.332;12.334;2023-07-28T12:25:47;26.20;49.60
10386;DHT22;34307;51.332;12.334;2023-07-28T12:28:19;26.30;51.10
10386;DHT22;34307;51.332;12.334;2023-07-28T12:30:47;25.90;51.10
10386;DHT22;34307;51.332;12.334;2023-07-28T12:33:20;25.50;52.30
10386;DHT22;34307;51.332;12.334;2023-07-28T12:35:49;24.80;54.20
10386;DHT22;34307;51.332;12.334;2023-07-28T12:38:18;25.00;55.90
10386;DHT22;34307;51.332;12.334;2023-07-28T12:40:50;25.30;55.70
10386;DHT22;34307;51.332;12.334;2023-07-28T12:43:22;25.40;54.70
10386;DHT22;34307;51.332;12.334;2023-07-28T12:45:56;25.30;56.10
10386;DHT22;34307;51.332;12.334;2023-07-28T12:48:29;24.90;56.70
10386;DHT22;34307;51.332;12.334;2023-07-28T12:50:57;24.80;57.80
10386;DHT22;34307;51.332;12.334;2023-07-28T12:53:28;24.70;59.40
10386;DHT22;34307;51.332;12.334;2023-07-28T12:55:57;24.80;58.80
10386;DHT22;34307;51.332;12.334;2023-07-28T12:58:26;24.90;59.80
10386;DHT22;34307;51.332;12.334;2023-07-28T13:00:58;25.40;58.00
10386;DHT22;34307;51.332;12.334;2023-07-28T13:03:30;26.20;55.10
10386;DHT22;34307;51.332;12.334;2023-07-28T13:05:59;26.90;52.00
10386;DHT22;34307;51.332;12.334;2023-07-28T13:08:28;27.80;49.30
10386;DHT22;34307;51.332;12.334;2023-07-28T13:11:01;27.70;45.00
10386;DHT22;34307;51.332;12.334;2023-07-28T13:13:32;27.50;46.00
10386;DHT22;34307;51.332;12.334;2023-07-28T13:16:01;28.00;44.30
10386;DHT22;34307;51.332;12.334;2023-07-28T13:18:30;28.50;42.90
10386;DHT22;34307;51.332;12.334;2023-07-28T13:21:00;28.90;38.80
10386;DHT22;34307;51.332;12.334;2023-07-28T13:23:29;27.40;42.30
10386;DHT22;34307;51.332;12.334;2023-07-28T13:25:58;26.90;44.70
10386;DHT22;34307;51.332;12.334;2023-07-28T13:28:35;26.20;45.00
10386;DHT22;34307;51.332;12.334;2023-07-28T13:31:04;25.40;50.30
10386;DHT22;34307;51.332;12.334;2023-07-28T13:33:45;25.00;52.10
10386;DHT22;34307;51.332;12.334;2023-07-28T13:36:13;24.70;53.60
10386;DHT22;34307;51.332;12.334;2023-07-28T13:38:41;24.70;55.00
10386;DHT22;34307;51.332;12.334;2023-07-28T13:41:09;24.70;55.40
10386;DHT22;34307;51.332;12.334;2023-07-28T13:43:37;24.90;56.20
10386;DHT22;34307;51.332;12.334;2023-07-28T13:46:07;25.00;53.10
10386;DHT22;34307;51.332;12.334;2023-07-28T13:48:37;25.40;52.10
10386;DHT22;34307;51.332;12.334;2023-07-28T13:51:10;26.20;49.70
10386;DHT22;34307;51.332;12.334;2023-07-28T13:53:41;27.50;45.60
10386;DHT22;34307;51.332;12.334;2023-07-28T13:56:29;28.10;39.20
10386;DHT22;34307;51.332;12.334;2023-07-28T13:58:59;28.70;37.30
10386;DHT22;34307;51.332;12.334;2023-07-28T14:01:27;28.20;36.90
10386;DHT22;34307;51.332;12.334;2023-07-28T14:03:55;28.00;37.00
10386;DHT22;34307;51.332;12.334;2023-07-28T14:06:25;28.20;35.00
10386;DHT22;34307;51.332;12.334;2023-07-28T14:08:53;28.20;35.10
10386;DHT22;34307;51.332;12.334;2023-07-28T14:11:21;28.00;34.10
10386;DHT22;34307;51.332;12.334;2023-07-28T14:13:49;28.50;32.70
10386;DHT22;34307;51.332;12.334;2023-07-28T14:16:17;28.10;31.40
10386;DHT22;34307;51.332;12.334;2023-07-28T14:18:45;27.70;31.60
10386;DHT22;34307;51.332;12.334;2023-07-28T14:21:18;27.80;32.40
10386;DHT22;34307;51.332;12.334;2023-07-28T14:23:49;27.80;33.20
10386;DHT22;34307;51.332;12.334;2023-07-28T14:26:17;28.20;30.70
10386;DHT22;34307;51.332;12.334;2023-07-28T14:28:45;28.90;27.20
10386;DHT22;34307;51.332;12.334;2023-07-28T14:31:13;28.60;26.90
10386;DHT22;34307;51.332;12.334;2023-07-28T14:33:41;28.50;27.70
10386;DHT22;34307;51.332;12.334;2023-07-28T14:36:12;28.60;26.90
10386;DHT22;34307;51.332;12.334;2023-07-28T14:38:40;28.20;26.60
10386;DHT22;34307;51.332;12.334;2023-07-28T14:41:10;28.60;27.10
10386;DHT22;34307;51.332;12.334;2023-07-28T14:43:38;29.00;27.20
10386;DHT22;34307;51.332;12.334;2023-07-28T14:46:08;29.80;23.50
10386;DHT22;34307;51.332;12.334;2023-07-28T14:48:36;29.30;25.20
10386;DHT22;34307;51.332;12.334;2023-07-28T14:51:04;28.70;24.80
10386;DHT22;34307;51.332;12.334;2023-07-28T14:53:37;28.50;25.50
10386;DHT22;34307;51.332;12.334;2023-07-28T14:56:06;27.50;25.00
10386;DHT22;34307;51.332;12.334;2023-07-28T14:58:37;27.30;27.40
10386;DHT22;34307;51.332;12.334;2023-07-28T15:01:09;27.00;28.70
10386;DHT22;34307;51.332;12.334;2023-07-28T15:03:38;27.20;28.70
10386;DHT22;34307;51.332;12.334;2023-07-28T15:06:07;26.80;28.60
10386;DHT22;34307;51.332;12.334;2023-07-28T15:08:36;26.70;31.30
10386;DHT22;34307;51.332;12.334;2023-07-28T15:11:04;27.00;30.80
10386;DHT22;34307;51.332;12.334;2023-07-28T15:13:32;27.00;30.60
10386;DHT22;34307;51.332;12.334;2023-07-28T15:16:04;27.30;30.00
10386;DHT22;34307;51.332;12.334;2023-07-28T15:18:31;28.20;28.50
10386;DHT22;34307;51.332;12.334;2023-07-28T15:21:00;28.50;27.80
10386;DHT22;34307;51.332;12.334;2023-07-28T15:23:30;28.60;27.40
10386;DHT22;34307;51.332;12.334;2023-07-28T15:25:58;28.50;28.90
10386;DHT22;34307;51.332;12.334;2023-07-28T15:28:26;28.40;27.60
10386;DHT22;34307;51.332;12.334;2023-07-28T15:30:54;28.20;27.30